CPX308 Details

Departure: Theodore Francis Green State Airport (KPVD)
Arrival: Chicago/Rockford International Airport (KRFD)
Route: BAF HNK NUGNT DJB J60 JOT V171 RFD


Current Weather Information
KPVD 200951Z 27003KT 10SM SCT090 M02/M08 A3042 RMK AO2 SLP300 T10171078
KRFD 200954Z 21003KT 10SM SCT055 BKN075 OVC095 05/01 A3012 RMK AO2 SLP204 T00500006